sensor_id;sensor_type;location;lat;lon;timestamp;temperature;humidity
73535;DHT22;61792;41.110;16.708;2022-07-15T00:00:26;23.68;53.15
73535;DHT22;61792;41.110;16.708;2022-07-15T00:03:30;23.67;53.41
73535;DHT22;61792;41.110;16.708;2022-07-15T00:06:35;23.67;52.82
73535;DHT22;61792;41.110;16.708;2022-07-15T00:09:40;23.60;53.14
73535;DHT22;61792;41.110;16.708;2022-07-15T00:13:02;23.64;52.46
73535;DHT22;61792;41.110;16.708;2022-07-15T00:16:06;23.64;51.91
73535;DHT22;61792;41.110;16.708;2022-07-15T00:19:11;23.58;51.78
73535;DHT22;61792;41.110;16.708;2022-07-15T00:22:14;23.50;51.84
73535;DHT22;61792;41.110;16.708;2022-07-15T00:25:19;23.44;51.41
73535;DHT22;61792;41.110;16.708;2022-07-15T00:28:23;23.39;51.10
73535;DHT22;61792;41.110;16.708;2022-07-15T00:31:28;23.34;50.85
73535;DHT22;61792;41.110;16.708;2022-07-15T00:34:32;23.30;50.32
73535;DHT22;61792;41.110;16.708;2022-07-15T00:37:36;23.23;50.14
73535;DHT22;61792;41.110;16.708;2022-07-15T00:40:43;23.09;50.20
73535;DHT22;61792;41.110;16.708;2022-07-15T00:43:47;23.05;49.76
73535;DHT22;61792;41.110;16.708;2022-07-15T00:46:52;22.92;49.59
73535;DHT22;61792;41.110;16.708;2022-07-15T00:49:56;22.95;49.48
73535;DHT22;61792;41.110;16.708;2022-07-15T00:53:13;22.79;49.30
73535;DHT22;61792;41.110;16.708;2022-07-15T00:56:21;22.81;49.03
73535;DHT22;61792;41.110;16.708;2022-07-15T00:59:31;22.72;48.96
73535;DHT22;61792;41.110;16.708;2022-07-15T01:02:37;22.75;48.63
73535;DHT22;61792;41.110;16.708;2022-07-15T01:05:43;22.81;48.15
73535;DHT22;61792;41.110;16.708;2022-07-15T01:08:48;22.85;47.92
73535;DHT22;61792;41.110;16.708;2022-07-15T01:11:52;22.98;47.58
73535;DHT22;61792;41.110;16.708;2022-07-15T01:14:56;23.05;47.16
73535;DHT22;61792;41.110;16.708;2022-07-15T01:18:02;23.05;46.83
73535;DHT22;61792;41.110;16.708;2022-07-15T01:21:07;22.98;46.89
73535;DHT22;61792;41.110;16.708;2022-07-15T01:24:12;22.91;46.90
73535;DHT22;61792;41.110;16.708;2022-07-15T01:27:21;22.85;47.47
73535;DHT22;61792;41.110;16.708;2022-07-15T01:30:26;22.89;46.91
73535;DHT22;61792;41.110;16.708;2022-07-15T01:33:32;22.92;46.29
73535;DHT22;61792;41.110;16.708;2022-07-15T01:36:36;22.92;45.68
73535;DHT22;61792;41.110;16.708;2022-07-15T01:39:41;22.92;45.14
73535;DHT22;61792;41.110;16.708;2022-07-15T01:42:45;22.92;44.67
73535;DHT22;61792;41.110;16.708;2022-07-15T01:45:51;22.79;45.05
73535;DHT22;61792;41.110;16.708;2022-07-15T01:49:03;22.75;45.47
73535;DHT22;61792;41.110;16.708;2022-07-15T01:52:46;22.73;45.75
73535;DHT22;61792;41.110;16.708;2022-07-15T01:55:50;22.71;45.20
73535;DHT22;61792;41.110;16.708;2022-07-15T01:58:54;22.76;44.98
73535;DHT22;61792;41.110;16.708;2022-07-15T02:01:58;22.69;44.35
73535;DHT22;61792;41.110;16.708;2022-07-15T02:05:03;22.68;44.38
73535;DHT22;61792;41.110;16.708;2022-07-15T02:08:08;22.68;43.84
73535;DHT22;61792;41.110;16.708;2022-07-15T02:11:13;22.72;43.04
73535;DHT22;61792;41.110;16.708;2022-07-15T02:14:17;22.71;42.95
73535;DHT22;61792;41.110;16.708;2022-07-15T02:17:24;22.68;42.20
73535;DHT22;61792;41.110;16.708;2022-07-15T02:20:28;22.72;42.50
73535;DHT22;61792;41.110;16.708;2022-07-15T02:23:33;22.72;42.33
73535;DHT22;61792;41.110;16.708;2022-07-15T02:26:37;22.68;42.57
73535;DHT22;61792;41.110;16.708;2022-07-15T02:29:41;22.65;42.50
73535;DHT22;61792;41.110;16.708;2022-07-15T02:32:46;22.59;42.53
73535;DHT22;61792;41.110;16.708;2022-07-15T02:35:50;22.50;42.68
73535;DHT22;61792;41.110;16.708;2022-07-15T02:38:55;22.43;42.81
73535;DHT22;61792;41.110;16.708;2022-07-15T02:42:01;22.44;42.88
73535;DHT22;61792;41.110;16.708;2022-07-15T02:45:06;22.24;42.89
73535;DHT22;61792;41.110;16.708;2022-07-15T02:48:10;22.36;42.98
73535;DHT22;61792;41.110;16.708;2022-07-15T02:51:20;22.43;42.73
73535;DHT22;61792;41.110;16.708;2022-07-15T02:54:24;22.44;42.12
73535;DHT22;61792;41.110;16.708;2022-07-15T02:57:28;22.37;42.07
73535;DHT22;61792;41.110;16.708;2022-07-15T03:00:32;22.47;41.99
73535;DHT22;61792;41.110;16.708;2022-07-15T03:03:40;22.52;41.78
73535;DHT22;61792;41.110;16.708;2022-07-15T03:06:48;22.57;41.06
73535;DHT22;61792;41.110;16.708;2022-07-15T03:09:54;22.65;40.63
73535;DHT22;61792;41.110;16.708;2022-07-15T03:12:58;22.72;40.75
73535;DHT22;61792;41.110;16.708;2022-07-15T03:16:04;22.81;40.26
73535;DHT22;61792;41.110;16.708;2022-07-15T03:19:09;22.86;39.86
73535;DHT22;61792;41.110;16.708;2022-07-15T03:22:15;22.82;39.94
73535;DHT22;61792;41.110;16.708;2022-07-15T03:25:19;22.71;39.97
73535;DHT22;61792;41.110;16.708;2022-07-15T03:28:24;22.62;40.30
73535;DHT22;61792;41.110;16.708;2022-07-15T03:31:29;22.54;40.71
73535;DHT22;61792;41.110;16.708;2022-07-15T03:34:36;22.34;41.26
73535;DHT22;61792;41.110;16.708;2022-07-15T03:37:42;22.21;41.54
73535;DHT22;61792;41.110;16.708;2022-07-15T03:40:46;22.18;41.55
73535;DHT22;61792;41.110;16.708;2022-07-15T03:43:51;22.21;41.44
73535;DHT22;61792;41.110;16.708;2022-07-15T03:46:56;22.25;40.68
73535;DHT22;61792;41.110;16.708;2022-07-15T03:50:00;22.34;40.65
73535;DHT22;61792;41.110;16.708;2022-07-15T03:53:04;22.37;40.77
73535;DHT22;61792;41.110;16.708;2022-07-15T03:56:09;22.37;40.93
73535;DHT22;61792;41.110;16.708;2022-07-15T03:59:14;22.43;40.57
73535;DHT22;61792;41.110;16.708;2022-07-15T04:02:18;22.45;40.61
73535;DHT22;61792;41.110;16.708;2022-07-15T04:05:23;22.40;40.68
73535;DHT22;61792;41.110;16.708;2022-07-15T04:08:28;22.44;40.76
73535;DHT22;61792;41.110;16.708;2022-07-15T04:11:33;22.45;41.01
73535;DHT22;61792;41.110;16.708;2022-07-15T04:14:37;22.51;40.99
73535;DHT22;61792;41.110;16.708;2022-07-15T04:17:42;22.64;40.95
73535;DHT22;61792;41.110;16.708;2022-07-15T04:20:47;22.75;40.35
73535;DHT22;61792;41.110;16.708;2022-07-15T04:23:52;22.89;40.35
73535;DHT22;61792;41.110;16.708;2022-07-15T04:26:57;22.95;40.11
73535;DHT22;61792;41.110;16.708;2022-07-15T04:30:02;23.16;39.84
73535;DHT22;61792;41.110;16.708;2022-07-15T04:33:15;23.28;39.78
73535;DHT22;61792;41.110;16.708;2022-07-15T04:36:20;23.43;39.53
73535;DHT22;61792;41.110;16.708;2022-07-15T04:39:25;23.58;39.54
73535;DHT22;61792;41.110;16.708;2022-07-15T04:42:29;23.68;39.30
73535;DHT22;61792;41.110;16.708;2022-07-15T04:45:33;23.81;39.19
73535;DHT22;61792;41.110;16.708;2022-07-15T04:48:38;23.85;39.09
73535;DHT22;61792;41.110;16.708;2022-07-15T04:52:01;23.99;38.85
73535;DHT22;61792;41.110;16.708;2022-07-15T04:55:05;24.13;38.78
73535;DHT22;61792;41.110;16.708;2022-07-15T04:58:09;24.37;38.58
73535;DHT22;61792;41.110;16.708;2022-07-15T05:01:14;24.57;38.24
73535;DHT22;61792;41.110;16.708;2022-07-15T05:04:18;24.64;38.22
73535;DHT22;61792;41.110;16.708;2022-07-15T05:07:22;24.81;37.87
73535;DHT22;61792;41.110;16.708;2022-07-15T05:10:26;24.94;37.94
73535;DHT22;61792;41.110;16.708;2022-07-15T05:13:39;25.20;37.51
73535;DHT22;61792;41.110;16.708;2022-07-15T05:16:45;25.35;37.30
73535;DHT22;61792;41.110;16.708;2022-07-15T05:19:50;25.46;36.95
73535;DHT22;61792;41.110;16.708;2022-07-15T05:22:59;25.67;36.88
73535;DHT22;61792;41.110;16.708;2022-07-15T05:26:05;25.82;36.49
73535;DHT22;61792;41.110;16.708;2022-07-15T05:29:12;26.04;36.52
73535;DHT22;61792;41.110;16.708;2022-07-15T05:32:17;26.26;36.37
73535;DHT22;61792;41.110;16.708;2022-07-15T05:35:22;26.56;36.09
73535;DHT22;61792;41.110;16.708;2022-07-15T05:38:27;26.66;36.32
73535;DHT22;61792;41.110;16.708;2022-07-15T05:41:31;27.00;35.78
73535;DHT22;61792;41.110;16.708;2022-07-15T05:44:36;27.27;35.48
73535;DHT22;61792;41.110;16.708;2022-07-15T05:47:49;27.35;35.12
73535;DHT22;61792;41.110;16.708;2022-07-15T05:50:55;27.66;34.88
73535;DHT22;61792;41.110;16.708;2022-07-15T05:54:00;28.05;34.61
73535;DHT22;61792;41.110;16.708;2022-07-15T05:57:04;28.44;33.75
73535;DHT22;61792;41.110;16.708;2022-07-15T06:00:09;28.72;33.20
73535;DHT22;61792;41.110;16.708;2022-07-15T06:03:23;28.99;32.58
73535;DHT22;61792;41.110;16.708;2022-07-15T06:06:28;29.18;31.99
73535;DHT22;61792;41.110;16.708;2022-07-15T06:09:32;29.45;31.84
73535;DHT22;61792;41.110;16.708;2022-07-15T06:12:36;29.69;31.48
73535;DHT22;61792;41.110;16.708;2022-07-15T06:15:40;30.06;30.75
73535;DHT22;61792;41.110;16.708;2022-07-15T06:18:48;30.30;29.78
73535;DHT22;61792;41.110;16.708;2022-07-15T06:21:54;30.79;29.66
73535;DHT22;61792;41.110;16.708;2022-07-15T06:25:02;31.26;29.56
73535;DHT22;61792;41.110;16.708;2022-07-15T06:28:07;31.44;28.64
73535;DHT22;61792;41.110;16.708;2022-07-15T06:31:11;31.58;28.26
73535;DHT22;61792;41.110;16.708;2022-07-15T06:34:20;31.60;29.59
73535;DHT22;61792;41.110;16.708;2022-07-15T06:37:30;31.67;30.39
73535;DHT22;61792;41.110;16.708;2022-07-15T06:40:35;31.64;30.60
73535;DHT22;61792;41.110;16.708;2022-07-15T06:43:40;31.64;30.37
73535;DHT22;61792;41.110;16.708;2022-07-15T06:46:48;31.53;30.87
73535;DHT22;61792;41.110;16.708;2022-07-15T06:49:53;31.81;30.58
73535;DHT22;61792;41.110;16.708;2022-07-15T06:52:57;31.89;30.13
73535;DHT22;61792;41.110;16.708;2022-07-15T06:56:03;32.01;29.69
73535;DHT22;61792;41.110;16.708;2022-07-15T06:59:08;32.32;29.66
73535;DHT22;61792;41.110;16.708;2022-07-15T07:02:12;32.40;30.11
73535;DHT22;61792;41.110;16.708;2022-07-15T07:05:18;32.60;29.23
73535;DHT22;61792;41.110;16.708;2022-07-15T07:08:23;32.81;28.44
73535;DHT22;61792;41.110;16.708;2022-07-15T07:11:27;33.04;28.48
73535;DHT22;61792;41.110;16.708;2022-07-15T07:14:32;33.14;28.19
73535;DHT22;61792;41.110;16.708;2022-07-15T07:17:36;33.49;27.75
73535;DHT22;61792;41.110;16.708;2022-07-15T07:20:40;33.83;27.56
73535;DHT22;61792;41.110;16.708;2022-07-15T07:23:47;34.04;27.59
73535;DHT22;61792;41.110;16.708;2022-07-15T07:26:51;34.12;27.09
73535;DHT22;61792;41.110;16.708;2022-07-15T07:29:56;34.19;27.20
73535;DHT22;61792;41.110;16.708;2022-07-15T07:33:00;33.98;27.61
73535;DHT22;61792;41.110;16.708;2022-07-15T07:36:05;34.27;26.73
73535;DHT22;61792;41.110;16.708;2022-07-15T07:39:10;34.52;26.00
73535;DHT22;61792;41.110;16.708;2022-07-15T07:42:15;34.59;27.00
73535;DHT22;61792;41.110;16.708;2022-07-15T07:45:19;34.93;26.33
73535;DHT22;61792;41.110;16.708;2022-07-15T07:48:23;34.86;26.67
73535;DHT22;61792;41.110;16.708;2022-07-15T07:51:27;35.07;26.41
73535;DHT22;61792;41.110;16.708;2022-07-15T07:54:32;35.44;26.22
73535;DHT22;61792;41.110;16.708;2022-07-15T07:57:49;35.41;25.68
73535;DHT22;61792;41.110;16.708;2022-07-15T08:00:53;35.61;26.08
73535;DHT22;61792;41.110;16.708;2022-07-15T08:03:59;35.06;26.24
73535;DHT22;61792;41.110;16.708;2022-07-15T08:07:03;35.59;26.93
73535;DHT22;61792;41.110;16.708;2022-07-15T08:10:10;35.72;26.79
73535;DHT22;61792;41.110;16.708;2022-07-15T08:13:19;35.78;27.00
73535;DHT22;61792;41.110;16.708;2022-07-15T08:16:23;35.93;26.22
73535;DHT22;61792;41.110;16.708;2022-07-15T08:19:28;35.88;26.76
73535;DHT22;61792;41.110;16.708;2022-07-15T08:22:32;35.78;26.87
73535;DHT22;61792;41.110;16.708;2022-07-15T08:25:37;35.92;25.20
73535;DHT22;61792;41.110;16.708;2022-07-15T08:28:42;36.16;25.64
73535;DHT22;61792;41.110;16.708;2022-07-15T08:31:46;36.21;25.56
73535;DHT22;61792;41.110;16.708;2022-07-15T08:34:51;35.94;25.96
73535;DHT22;61792;41.110;16.708;2022-07-15T08:37:55;36.03;25.43
73535;DHT22;61792;41.110;16.708;2022-07-15T08:41:00;36.10;25.21
73535;DHT22;61792;41.110;16.708;2022-07-15T08:44:05;36.26;25.37
73535;DHT22;61792;41.110;16.708;2022-07-15T08:47:10;36.43;25.22
73535;DHT22;61792;41.110;16.708;2022-07-15T08:50:16;36.58;25.05
73535;DHT22;61792;41.110;16.708;2022-07-15T08:53:21;36.81;24.40
73535;DHT22;61792;41.110;16.708;2022-07-15T08:56:25;36.70;23.92
73535;DHT22;61792;41.110;16.708;2022-07-15T08:59:29;37.05;22.67
73535;DHT22;61792;41.110;16.708;2022-07-15T09:02:34;37.22;22.84
73535;DHT22;61792;41.110;16.708;2022-07-15T09:05:41;37.16;22.04
73535;DHT22;61792;41.110;16.708;2022-07-15T09:08:46;37.26;21.67
73535;DHT22;61792;41.110;16.708;2022-07-15T09:12:11;37.16;21.62
73535;DHT22;61792;41.110;16.708;2022-07-15T09:15:28;37.00;22.45
